Time;durP1;ratioP1;P1;durP2;ratioP2;P2;SDS_P1;SDS_P2;PMS_P1;PMS_P2;Temp;Humidity;BMP_temperature;BMP_pressure;BME280_temperature;BME280_humidity;BME280_pressure;Samples;Min_cycle;Max_cycle;Signal;HPM_P1;HPM_P2
2023/04/21 00:01:07;;;;;;;16.33;10.82;;;8.90;99.90;;;;;;5055603;28;20073;-78
2023/04/21 00:03:36;;;;;;;15.80;10.10;;;9.00;99.90;;;;;;5056935;28;20055;-76
2023/04/21 00:06:05;;;;;;;15.88;10.50;;;9.00;99.90;;;;;;5056210;28;20048;-78
2023/04/21 00:08:31;;;;;;;14.80;9.80;;;9.00;99.90;;;;;;5053794;28;20041;-76
2023/04/21 00:10:56;;;;;;;12.70;9.52;;;9.00;99.90;;;;;;5055945;28;20103;-77
2023/04/21 00:13:22;;;;;;;15.13;9.98;;;9.00;99.90;;;;;;5056033;28;20537;-76
2023/04/21 00:15:49;;;;;;;14.20;9.60;;;9.00;99.90;;;;;;5055138;28;20037;-77
2023/04/21 00:18:15;;;;;;;14.32;9.52;;;9.00;99.90;;;;;;5056688;28;20103;-77
2023/04/21 00:20:42;;;;;;;13.50;9.25;;;9.00;99.90;;;;;;5055226;28;20056;-78
2023/04/21 00:23:09;;;;;;;13.95;9.32;;;9.00;99.90;;;;;;5055770;28;20057;-76
2023/04/21 00:25:36;;;;;;;13.45;9.07;;;9.00;99.90;;;;;;5054890;28;20488;-79
2023/04/21 00:28:01;;;;;;;12.38;8.98;;;8.90;99.90;;;;;;5054734;28;20053;-79
2023/04/21 00:30:27;;;;;;;13.77;9.63;;;8.90;99.90;;;;;;5054864;28;20052;-77
2023/04/21 00:32:53;;;;;;;13.95;8.82;;;8.80;99.90;;;;;;5055708;28;20409;-78
2023/04/21 00:35:18;;;;;;;14.27;9.27;;;8.80;99.90;;;;;;5054756;28;20045;-77
2023/04/21 00:37:44;;;;;;;13.25;8.40;;;8.80;99.90;;;;;;5054675;28;20098;-80
2023/04/21 00:40:10;;;;;;;12.13;9.10;;;8.70;99.90;;;;;;5055600;28;20056;-78
2023/04/21 00:42:36;;;;;;;13.00;7.85;;;8.70;99.90;;;;;;5054347;28;20048;-78
2023/04/21 00:45:05;;;;;;;13.13;9.38;;;8.60;99.90;;;;;;5037920;28;20466;-78
2023/04/21 00:47:30;;;;;;;12.70;9.05;;;8.60;99.90;;;;;;5054695;28;20067;-81
2023/04/21 00:49:57;;;;;;;13.85;8.98;;;8.60;99.90;;;;;;5054416;28;20044;-76
2023/04/21 00:52:23;;;;;;;14.27;8.60;;;8.60;99.90;;;;;;5054460;28;20045;-77
2023/04/21 00:54:49;;;;;;;13.20;8.45;;;8.60;99.90;;;;;;5054628;28;20132;-77
2023/04/21 00:57:15;;;;;;;15.43;9.18;;;8.60;99.90;;;;;;5055188;28;20478;-78
2023/04/21 00:59:42;;;;;;;10.93;8.32;;;8.60;99.90;;;;;;5054150;28;20496;-78
2023/04/21 01:02:08;;;;;;;12.68;8.52;;;8.60;99.90;;;;;;5055183;28;20053;-76
2023/04/21 01:04:38;;;;;;;11.32;8.27;;;8.70;99.90;;;;;;5053877;28;20037;-76
2023/04/21 01:07:05;;;;;;;12.23;8.57;;;8.70;99.90;;;;;;5053910;28;20056;-77
2023/04/21 01:09:31;;;;;;;12.10;7.63;;;8.70;99.90;;;;;;5055911;28;20057;-78
2023/04/21 01:12:17;;;;;;;13.00;8.25;;;8.70;99.90;;;;;;5055029;28;20114;-77
2023/04/21 01:14:43;;;;;;;12.63;8.37;;;8.70;99.90;;;;;;5054550;28;20056;-77
2023/04/21 01:17:09;;;;;;;12.73;9.18;;;8.60;99.90;;;;;;5053803;28;20048;-76
2023/04/21 01:19:41;;;;;;;12.02;8.73;;;8.60;99.90;;;;;;5053803;28;20060;-77
2023/04/21 01:22:11;;;;;;;11.77;8.27;;;8.60;99.90;;;;;;5056349;28;20057;-77
2023/04/21 01:24:40;;;;;;;15.52;9.18;;;8.60;99.90;;;;;;5055839;28;20066;-75
2023/04/21 01:27:10;;;;;;;11.68;8.38;;;8.60;99.90;;;;;;5054753;28;20048;-77
2023/04/21 01:29:37;;;;;;;11.23;7.55;;;8.60;99.90;;;;;;5055246;28;20060;-77
2023/04/21 01:32:08;;;;;;;12.35;8.05;;;8.50;99.90;;;;;;5053584;28;20492;-77
2023/04/21 01:34:34;;;;;;;13.05;7.88;;;8.50;99.90;;;;;;5054626;28;20080;-76
2023/04/21 01:37:00;;;;;;;13.70;8.48;;;8.50;99.90;;;;;;5053670;28;20052;-75
2023/04/21 01:39:25;;;;;;;10.77;8.00;;;8.50;99.90;;;;;;5036862;28;20052;-75
2023/04/21 01:41:52;;;;;;;10.77;7.90;;;8.50;99.90;;;;;;5054247;28;20053;-77
2023/04/21 01:44:17;;;;;;;11.13;7.95;;;8.40;99.90;;;;;;5037622;28;20442;-80
2023/04/21 01:46:43;;;;;;;12.02;8.40;;;8.40;99.90;;;;;;5054118;28;20095;-77
2023/04/21 01:49:09;;;;;;;13.45;8.07;;;8.40;99.90;;;;;;5053436;28;20048;-77
2023/04/21 01:51:34;;;;;;;14.02;8.07;;;8.40;99.90;;;;;;5052934;28;20076;-77
2023/04/21 01:54:00;;;;;;;12.88;8.13;;;8.40;99.90;;;;;;5036915;28;20063;-77
2023/04/21 01:56:26;;;;;;;11.95;8.13;;;8.40;99.90;;;;;;5054074;28;20049;-79
2023/04/21 01:58:52;;;;;;;11.68;7.28;;;8.30;99.90;;;;;;5036582;28;20503;-76
2023/04/21 02:01:18;;;;;;;11.07;7.80;;;8.30;99.90;;;;;;5054322;28;20056;-76
2023/04/21 02:03:44;;;;;;;11.65;7.65;;;8.20;99.90;;;;;;5053015;28;20473;-78
2023/04/21 02:06:10;;;;;;;12.18;7.82;;;8.20;99.90;;;;;;5053079;28;20052;-76
2023/04/21 02:08:36;;;;;;;12.93;8.18;;;8.20;99.90;;;;;;5052930;28;20052;-78
2023/04/21 02:11:02;;;;;;;14.13;7.80;;;8.20;99.90;;;;;;5054446;28;20071;-76
2023/04/21 02:13:27;;;;;;;12.48;7.60;;;8.20;99.90;;;;;;5052821;28;20473;-76
2023/04/21 02:15:53;;;;;;;10.63;7.72;;;8.20;99.90;;;;;;5053818;28;20481;-77
2023/04/21 02:18:19;;;;;;;10.45;7.93;;;8.20;99.90;;;;;;5035927;28;20496;-76
2023/04/21 02:20:44;;;;;;;13.93;7.68;;;8.20;99.90;;;;;;5053380;28;20110;-79
2023/04/21 02:23:10;;;;;;;13.13;8.45;;;8.10;99.90;;;;;;5052519;28;20059;-76
2023/04/21 02:25:36;;;;;;;10.82;7.22;;;8.10;99.90;;;;;;5053437;28;20053;-77
2023/04/21 02:28:01;;;;;;;13.10;8.48;;;8.10;99.90;;;;;;5052634;28;20037;-77
2023/04/21 02:30:27;;;;;;;10.55;7.07;;;8.10;99.90;;;;;;5052419;28;20102;-77
2023/04/21 02:32:53;;;;;;;11.38;7.72;;;8.00;99.90;;;;;;5052059;28;20081;-76
2023/04/21 02:35:19;;;;;;;12.63;7.97;;;8.00;99.90;;;;;;5052761;28;20041;-77
2023/04/21 02:37:44;;;;;;;10.48;7.65;;;8.00;99.90;;;;;;5053504;28;20098;-77
2023/04/21 02:40:10;;;;;;;11.70;7.68;;;7.90;99.90;;;;;;5052527;28;20049;-78
2023/04/21 02:42:36;;;;;;;9.07;7.03;;;7.90;99.90;;;;;;5052260;28;20049;-78
2023/04/21 02:45:02;;;;;;;10.35;7.50;;;7.90;99.90;;;;;;5052134;28;20447;-78
2023/04/21 02:47:28;;;;;;;11.95;7.45;;;7.90;99.90;;;;;;5053332;28;20044;-77
2023/04/21 02:49:53;;;;;;;11.90;7.68;;;7.90;99.90;;;;;;5052633;28;20045;-77
2023/04/21 02:52:19;;;;;;;10.32;7.53;;;7.90;99.90;;;;;;5052353;28;20041;-76
2023/04/21 02:54:44;;;;;;;12.93;7.93;;;7.90;99.90;;;;;;5035832;28;20059;-77
2023/04/21 02:57:10;;;;;;;10.10;7.68;;;8.00;99.90;;;;;;5052180;28;20041;-79
2023/04/21 02:59:36;;;;;;;11.98;8.32;;;8.00;99.90;;;;;;5053298;28;20040;-75
2023/04/21 03:02:02;;;;;;;11.80;8.13;;;8.00;99.90;;;;;;5052186;28;20437;-78
2023/04/21 03:04:28;;;;;;;11.23;7.50;;;8.10;99.90;;;;;;5053245;28;20142;-77
2023/04/21 03:06:54;;;;;;;13.48;8.05;;;8.10;99.90;;;;;;5053320;28;20041;-76
2023/04/21 03:09:20;;;;;;;10.18;8.02;;;8.10;99.90;;;;;;5051962;28;20053;-79
2023/04/21 03:11:45;;;;;;;10.55;7.65;;;8.10;99.90;;;;;;5053180;28;20049;-77
2023/04/21 03:14:11;;;;;;;10.57;7.20;;;8.10;99.90;;;;;;5053202;28;20397;-77
2023/04/21 03:16:37;;;;;;;11.35;7.85;;;8.10;99.90;;;;;;5053091;28;20078;-78
2023/04/21 03:19:03;;;;;;;12.43;8.13;;;8.10;99.90;;;;;;5053289;28;20056;-76
2023/04/21 03:21:30;;;;;;;10.40;7.55;;;8.10;99.90;;;;;;5051731;28;20378;-77
2023/04/21 03:23:55;;;;;;;13.57;7.70;;;8.10;99.90;;;;;;5052890;28;20072;-77
2023/04/21 03:26:21;;;;;;;11.02;7.35;;;8.10;99.90;;;;;;5051888;28;20497;-77
2023/04/21 03:28:47;;;;;;;9.55;7.00;;;8.10;99.90;;;;;;5051626;28;20049;-78
2023/04/21 03:31:13;;;;;;;12.10;7.85;;;8.10;99.90;;;;;;5051905;28;20124;-77
2023/04/21 03:33:38;;;;;;;11.68;7.68;;;8.10;99.90;;;;;;5053362;28;20099;-80
2023/04/21 03:36:05;;;;;;;12.20;8.10;;;8.10;99.90;;;;;;5036153;28;20359;-76
2023/04/21 03:38:31;;;;;;;9.77;7.82;;;8.00;99.90;;;;;;5053630;28;20123;-78
2023/04/21 03:40:56;;;;;;;11.18;7.75;;;8.00;99.90;;;;;;5052700;28;20473;-78
2023/04/21 03:43:22;;;;;;;11.35;7.90;;;8.00;99.90;;;;;;5037060;28;20064;-76
2023/04/21 03:45:48;;;;;;;12.02;7.65;;;8.00;99.90;;;;;;5056627;28;20048;-78
2023/04/21 03:48:13;;;;;;;10.52;7.38;;;7.90;99.90;;;;;;5056567;28;20045;-76
2023/04/21 03:50:39;;;;;;;12.25;8.20;;;7.90;99.90;;;;;;5056352;28;20365;-79
2023/04/21 03:53:05;;;;;;;12.18;7.97;;;7.90;99.90;;;;;;5056288;28;20053;-77
2023/04/21 03:55:30;;;;;;;10.85;8.43;;;7.90;99.90;;;;;;5039207;28;20466;-77
2023/04/21 03:57:56;;;;;;;11.50;7.43;;;7.90;99.90;;;;;;5038596;28;20045;-78
2023/04/21 04:00:22;;;;;;;11.40;7.65;;;7.90;99.90;;;;;;5056339;28;20151;-76
2023/04/21 04:02:47;;;;;;;13.07;7.65;;;7.90;99.90;;;;;;5055999;28;20044;-78
2023/04/21 04:05:13;;;;;;;12.13;7.78;;;7.90;99.90;;;;;;5055372;28;20045;-77
2023/04/21 04:07:39;;;;;;;10.65;7.57;;;7.90;99.90;;;;;;5056204;28;20053;-76
2023/04/21 04:10:05;;;;;;;11.98;8.18;;;7.90;99.90;;;;;;5055907;28;20052;-77
2023/04/21 04:12:30;;;;;;;11.82;7.88;;;7.80;99.90;;;;;;5055827;28;20466;-78
2023/04/21 04:14:56;;;;;;;12.27;7.57;;;7.70;99.90;;;;;;5054793;28;20064;-79
2023/04/21 04:17:22;;;;;;;10.88;7.65;;;7.70;99.90;;;;;;5054451;28;20128;-77
2023/04/21 04:19:47;;;;;;;8.80;6.65;;;7.60;99.90;;;;;;5054582;28;20048;-77
2023/04/21 04:22:13;;;;;;;12.73;7.95;;;7.60;99.90;;;;;;5054668;28;20060;-77
2023/04/21 04:24:39;;;;;;;10.65;7.47;;;7.60;99.90;;;;;;5055770;28;20056;-76
2023/04/21 04:27:05;;;;;;;10.10;7.28;;;7.60;99.90;;;;;;5038509;28;20048;-76
2023/04/21 04:29:31;;;;;;;13.10;7.93;;;7.60;99.90;;;;;;5055676;28;20064;-76
2023/04/21 04:32:00;;;;;;;11.90;8.02;;;7.50;99.90;;;;;;5055844;28;20448;-76
2023/04/21 04:34:25;;;;;;;10.50;7.03;;;7.50;99.90;;;;;;5055863;28;20057;-76
2023/04/21 04:36:51;;;;;;;11.27;7.95;;;7.50;99.90;;;;;;5054652;28;20429;-76
2023/04/21 04:39:17;;;;;;;9.45;7.38;;;7.60;99.90;;;;;;5037719;28;20056;-77
2023/04/21 04:41:42;;;;;;;12.32;7.30;;;7.50;99.90;;;;;;5055408;28;20045;-77
2023/04/21 04:44:09;;;;;;;9.48;6.90;;;7.60;99.90;;;;;;5054598;28;20481;-77
2023/04/21 04:46:35;;;;;;;11.23;7.43;;;7.60;99.90;;;;;;5054575;28;20053;-77
2023/04/21 04:49:01;;;;;;;11.73;7.43;;;7.60;99.90;;;;;;5054279;28;20053;-77
2023/04/21 04:51:27;;;;;;;11.30;7.72;;;7.70;99.90;;;;;;5054391;28;20059;-77
2023/04/21 04:53:52;;;;;;;8.50;7.32;;;7.70;99.90;;;;;;5054074;28;20072;-77
2023/04/21 04:56:18;;;;;;;10.50;7.65;;;7.70;99.90;;;;;;5053588;28;20477;-79
2023/04/21 04:58:46;;;;;;;13.98;9.80;;;7.70;99.90;;;;;;5038499;28;20053;-78
2023/04/21 05:01:15;;;;;;;10.48;7.13;;;7.80;99.90;;;;;;5037752;28;20056;-78
2023/04/21 05:03:43;;;;;;;11.27;8.13;;;7.80;99.90;;;;;;5054477;28;20059;-76
2023/04/21 05:06:08;;;;;;;12.00;7.70;;;7.80;99.90;;;;;;5055323;28;20082;-77
2023/04/21 05:08:34;;;;;;;11.23;7.43;;;7.80;99.90;;;;;;5055001;28;20132;-76
2023/04/21 05:11:00;;;;;;;8.73;7.35;;;7.90;99.90;;;;;;5054910;28;20053;-77
2023/04/21 05:13:26;;;;;;;12.70;7.30;;;7.90;99.90;;;;;;5054917;28;20068;-78
2023/04/21 05:16:00;;;;;;;13.25;7.50;;;7.90;99.90;;;;;;5054848;28;20184;-76
2023/04/21 05:18:26;;;;;;;11.27;7.72;;;8.00;99.90;;;;;;5054358;28;20402;-76
2023/04/21 05:20:52;;;;;;;11.35;6.90;;;8.00;99.90;;;;;;5054416;28;20051;-77
2023/04/21 05:23:17;;;;;;;9.23;6.80;;;8.10;99.90;;;;;;5055448;28;20059;-76
2023/04/21 05:25:43;;;;;;;11.50;7.20;;;8.10;99.90;;;;;;5053737;28;20045;-76
2023/04/21 05:28:09;;;;;;;10.32;7.68;;;8.20;99.90;;;;;;5053560;28;20080;-78
2023/04/21 05:30:35;;;;;;;10.32;7.13;;;8.30;99.90;;;;;;5054433;28;20071;-76
2023/04/21 05:33:00;;;;;;;9.93;6.90;;;8.30;99.90;;;;;;5053714;28;20099;-77
2023/04/21 05:35:29;;;;;;;11.35;7.13;;;8.40;99.90;;;;;;5053555;28;20458;-77
2023/04/21 05:37:54;;;;;;;9.63;7.28;;;8.50;99.90;;;;;;5053278;28;20055;-77
2023/04/21 05:40:20;;;;;;;11.68;7.40;;;8.50;99.90;;;;;;5054515;28;20049;-78
2023/04/21 05:42:46;;;;;;;10.95;7.22;;;8.60;99.90;;;;;;5053444;28;20041;-77
2023/04/21 05:45:11;;;;;;;10.38;7.05;;;8.60;99.90;;;;;;5037144;28;20049;-76
2023/04/21 05:47:38;;;;;;;10.75;6.28;;;8.70;99.90;;;;;;5056052;28;20085;-75
2023/04/21 05:50:05;;;;;;;8.68;6.60;;;8.70;99.90;;;;;;5054251;28;20044;-76
2023/04/21 05:52:30;;;;;;;10.27;7.00;;;8.80;99.90;;;;;;5036910;28;20056;-77
2023/04/21 05:54:58;;;;;;;10.77;6.88;;;8.80;99.90;;;;;;5053154;28;20045;-78
2023/04/21 05:57:24;;;;;;;12.57;7.00;;;8.90;99.90;;;;;;5053055;28;20037;-77
2023/04/21 05:59:49;;;;;;;12.82;7.10;;;8.90;99.90;;;;;;5053173;28;20068;-77
2023/04/21 06:02:15;;;;;;;10.45;7.57;;;9.00;99.90;;;;;;5052929;28;20128;-75
2023/04/21 06:04:41;;;;;;;8.70;6.63;;;9.10;99.90;;;;;;5036796;28;20040;-76
2023/04/21 06:07:09;;;;;;;9.40;6.40;;;9.20;99.90;;;;;;5052898;28;20529;-76
2023/04/21 06:09:35;;;;;;;10.35;7.10;;;9.30;99.90;;;;;;5053874;28;20084;-76
2023/04/21 06:12:02;;;;;;;10.43;6.68;;;9.30;99.90;;;;;;5052914;28;20152;-77
2023/04/21 06:14:28;;;;;;;9.75;6.40;;;9.40;99.90;;;;;;5052737;28;20057;-76
2023/04/21 06:16:54;;;;;;;14.57;6.55;;;9.40;99.90;;;;;;5036201;28;20076;-82
2023/04/21 06:19:20;;;;;;;10.30;6.78;;;9.40;99.90;;;;;;5053712;28;20580;-83
2023/04/21 06:21:45;;;;;;;8.68;6.38;;;9.50;99.90;;;;;;5052182;28;20057;-79
2023/04/21 06:24:11;;;;;;;8.90;6.15;;;9.60;99.90;;;;;;5053250;28;20057;-81
2023/04/21 06:26:36;;;;;;;9.20;6.65;;;9.70;99.90;;;;;;5053519;28;20064;-79
2023/04/21 06:29:02;;;;;;;8.77;7.03;;;9.70;99.90;;;;;;5053633;28;20045;-82
2023/04/21 06:31:28;;;;;;;10.90;6.80;;;9.70;99.90;;;;;;5053526;28;20055;-79
2023/04/21 06:33:53;;;;;;;9.82;6.55;;;9.60;99.90;;;;;;5053474;28;20502;-80
2023/04/21 06:36:21;;;;;;;11.45;6.63;;;9.60;99.90;;;;;;5053336;28;20053;-79
2023/04/21 06:38:47;;;;;;;12.85;7.38;;;9.60;99.90;;;;;;5052424;28;20049;-79
2023/04/21 06:41:13;;;;;;;8.82;6.53;;;9.70;99.90;;;;;;5053428;28;20109;-80
2023/04/21 06:43:39;;;;;;;9.25;6.88;;;9.90;99.90;;;;;;5052494;28;20037;-79
2023/04/21 06:46:05;;;;;;;9.95;6.70;;;10.20;99.90;;;;;;5053363;28;20041;-77
2023/04/21 06:48:31;;;;;;;12.00;6.82;;;10.40;99.90;;;;;;5053049;28;20102;-79
2023/04/21 06:50:56;;;;;;;9.90;6.75;;;10.70;99.90;;;;;;5053356;28;20044;-81
2023/04/21 06:53:22;;;;;;;9.50;6.95;;;10.90;99.90;;;;;;5053305;28;20056;-81
2023/04/21 06:55:48;;;;;;;12.25;7.10;;;11.00;99.90;;;;;;5053364;28;20041;-80
2023/04/21 06:58:14;;;;;;;11.63;6.55;;;11.10;99.90;;;;;;5053803;28;20049;-82
2023/04/21 07:00:40;;;;;;;8.55;6.55;;;11.10;99.90;;;;;;5052998;28;20497;-79
2023/04/21 07:03:06;;;;;;;9.18;6.43;;;11.10;99.90;;;;;;5053180;28;20137;-78
2023/04/21 07:05:32;;;;;;;10.85;6.97;;;11.10;99.90;;;;;;5053527;28;20056;-79
2023/04/21 07:08:00;;;;;;;10.18;6.82;;;11.10;99.90;;;;;;5053379;28;20355;-81
2023/04/21 07:10:27;;;;;;;9.05;6.25;;;11.20;99.90;;;;;;5052432;28;20049;-81
2023/04/21 07:12:53;;;;;;;11.45;6.47;;;11.20;99.90;;;;;;5052650;28;20532;-80
2023/04/21 07:15:19;;;;;;;9.32;6.85;;;11.30;99.90;;;;;;5053864;28;20037;-82
2023/04/21 07:17:45;;;;;;;10.75;6.90;;;11.40;99.90;;;;;;5053666;28;20397;-80
2023/04/21 07:20:10;;;;;;;8.35;6.82;;;11.40;99.90;;;;;;5056976;28;20074;-84
2023/04/21 07:22:36;;;;;;;10.10;6.68;;;11.50;99.90;;;;;;5055452;28;20053;-77
2023/04/21 07:25:05;;;;;;;9.18;6.38;;;11.50;99.90;;;;;;5055874;28;20135;-77
2023/04/21 07:27:32;;;;;;;10.43;6.75;;;11.60;99.90;;;;;;5056543;28;20528;-76
2023/04/21 07:29:58;;;;;;;9.90;6.30;;;11.70;99.90;;;;;;5056903;28;20037;-73
2023/04/21 07:32:24;;;;;;;8.75;6.40;;;11.70;99.90;;;;;;5055669;28;20477;-72
2023/04/21 07:34:49;;;;;;;10.35;6.78;;;11.70;99.90;;;;;;5057020;28;20053;-72
2023/04/21 07:37:15;;;;;;;8.05;6.20;;;11.80;99.90;;;;;;5056322;28;20052;-72
2023/04/21 07:39:41;;;;;;;9.70;6.72;;;11.80;99.90;;;;;;5056601;28;20110;-76
2023/04/21 07:42:07;;;;;;;10.43;6.50;;;11.90;99.90;;;;;;5056606;28;20136;-77
2023/04/21 07:44:33;;;;;;;10.27;6.70;;;11.90;99.90;;;;;;5057218;28;20128;-76
2023/04/21 07:46:59;;;;;;;11.40;6.80;;;12.00;99.90;;;;;;5056794;28;20107;-78
2023/04/21 07:49:24;;;;;;;9.10;6.70;;;12.00;99.90;;;;;;5056402;28;20481;-75
2023/04/21 07:51:50;;;;;;;10.00;6.82;;;12.20;99.90;;;;;;5057003;28;20045;-76
2023/04/21 07:54:16;;;;;;;10.23;6.57;;;12.30;99.90;;;;;;5055687;28;20489;-79
2023/04/21 07:56:42;;;;;;;9.88;6.53;;;12.40;99.90;;;;;;5056940;28;20044;-77
2023/04/21 07:59:08;;;;;;;9.73;6.93;;;12.60;99.90;;;;;;5055571;28;20044;-77
2023/04/21 08:01:33;;;;;;;10.15;6.78;;;12.70;99.90;;;;;;5056175;28;20045;-78
2023/04/21 08:03:59;;;;;;;8.98;6.10;;;12.80;99.90;;;;;;5055887;28;20044;-79
2023/04/21 08:06:26;;;;;;;11.40;6.85;;;12.90;99.90;;;;;;5055817;28;20056;-79
2023/04/21 08:08:53;;;;;;;8.07;6.10;;;12.90;99.90;;;;;;5055041;28;20049;-79
2023/04/21 08:11:19;;;;;;;10.55;6.68;;;13.00;99.90;;;;;;5055111;28;20049;-77
2023/04/21 08:13:44;;;;;;;8.15;6.07;;;13.10;99.90;;;;;;5054707;28;20481;-75
2023/04/21 08:16:10;;;;;;;10.35;6.32;;;13.20;99.90;;;;;;5055546;28;20358;-78
2023/04/21 08:18:37;;;;;;;8.40;6.45;;;13.30;99.90;;;;;;5055613;28;20090;-77
2023/04/21 08:21:03;;;;;;;12.82;6.97;;;13.40;99.90;;;;;;5054557;28;20041;-75
2023/04/21 08:23:29;;;;;;;11.07;7.25;;;13.50;99.90;;;;;;5055434;28;20096;-76
2023/04/21 08:25:56;;;;;;;12.23;7.40;;;13.50;99.90;;;;;;5055505;28;20099;-75
2023/04/21 08:28:21;;;;;;;10.30;6.32;;;13.60;99.90;;;;;;5055511;28;20120;-76
2023/04/21 08:30:47;;;;;;;8.88;6.60;;;13.60;99.90;;;;;;5053329;28;20091;-74
2023/04/21 08:33:13;;;;;;;13.05;7.35;;;13.70;99.90;;;;;;5054159;28;20483;-74
2023/04/21 08:35:41;;;;;;;9.93;6.22;;;13.80;99.90;;;;;;5055324;28;20127;-76
2023/04/21 08:38:08;;;;;;;10.75;6.30;;;13.80;99.90;;;;;;5037940;28;20132;-76
2023/04/21 08:40:36;;;;;;;11.88;6.78;;;13.90;99.90;;;;;;5054981;28;20488;-76
2023/04/21 08:43:06;;;;;;;8.93;7.18;;;14.10;99.90;;;;;;5055157;28;20055;-78
2023/04/21 08:45:33;;;;;;;8.30;6.57;;;14.20;99.90;;;;;;5055508;28;20102;-76
2023/04/21 08:48:00;;;;;;;11.65;6.35;;;14.40;99.90;;;;;;5054170;28;20473;-78
2023/04/21 08:50:28;;;;;;;10.13;6.40;;;14.50;99.90;;;;;;5053796;28;20049;-76
2023/04/21 08:52:54;;;;;;;9.68;6.68;;;14.60;99.90;;;;;;5054936;28;20048;-78
2023/04/21 08:55:28;;;;;;;9.30;6.70;;;14.70;99.90;;;;;;5053888;28;20066;-75
2023/04/21 08:57:53;;;;;;;9.55;6.53;;;14.70;99.90;;;;;;5055441;28;20124;-76
2023/04/21 09:00:20;;;;;;;11.95;7.10;;;14.80;99.90;;;;;;5054869;28;20114;-75
2023/04/21 09:02:54;;;;;;;8.82;6.85;;;14.90;99.90;;;;;;5054830;28;20037;-75
2023/04/21 09:05:28;;;;;;;9.32;6.45;;;15.10;99.90;;;;;;5055628;28;20437;-76
2023/04/21 09:08:10;;;;;;;10.27;6.80;;;15.30;99.90;;;;;;5053852;28;20470;-75
2023/04/21 09:10:43;;;;;;;9.10;6.53;;;15.50;99.90;;;;;;5054494;28;20351;-77
2023/04/21 09:13:09;;;;;;;10.13;6.47;;;15.60;99.90;;;;;;5053726;28;20057;-77
2023/04/21 09:15:42;;;;;;;10.13;6.22;;;15.90;99.90;;;;;;5054852;28;20390;-75
2023/04/21 09:18:22;;;;;;;10.10;5.97;;;16.00;99.90;;;;;;5054106;28;20084;-77
2023/04/21 09:21:13;;;;;;;9.55;6.57;;;16.00;99.90;;;;;;5055108;28;20102;-78
2023/04/21 09:23:52;;;;;;;9.88;6.88;;;15.90;99.90;;;;;;5054482;28;20060;-75
2023/04/21 09:26:21;;;;;;;8.82;6.28;;;15.90;99.90;;;;;;5054507;28;20052;-75
2023/04/21 09:28:48;;;;;;;8.27;6.63;;;15.90;99.90;;;;;;5054318;28;20045;-76
2023/04/21 09:31:15;;;;;;;8.93;6.47;;;16.00;99.90;;;;;;5054282;28;20045;-74
2023/04/21 09:33:50;;;;;;;10.38;7.15;;;16.10;99.90;;;;;;5054315;28;20102;-75
2023/04/21 09:36:22;;;;;;;8.75;6.38;;;16.30;99.90;;;;;;5054257;28;20049;-74
2023/04/21 09:38:57;;;;;;;10.52;6.80;;;16.70;99.90;;;;;;5054639;28;20392;-75
2023/04/21 09:41:24;;;;;;;7.90;6.07;;;16.90;99.90;;;;;;5053740;28;20079;-75
2023/04/21 09:43:50;;;;;;;9.68;6.22;;;17.20;99.90;;;;;;5054826;28;20041;-77
2023/04/21 09:46:16;;;;;;;7.72;6.10;;;17.30;99.90;;;;;;5053967;28;20044;-76
2023/04/21 09:48:44;;;;;;;9.43;6.18;;;17.40;99.90;;;;;;5053979;28;20040;-75
2023/04/21 09:51:15;;;;;;;9.52;6.10;;;17.30;99.90;;;;;;5053213;28;20118;-76
2023/04/21 09:53:42;;;;;;;8.57;6.63;;;17.20;99.90;;;;;;5053905;28;20084;-78
2023/04/21 09:56:12;;;;;;;7.35;6.13;;;17.10;99.90;;;;;;5053895;28;20405;-74
2023/04/21 09:58:56;;;;;;;9.95;6.35;;;17.10;99.90;;;;;;5053721;28;20053;-75
2023/04/21 10:01:25;;;;;;;9.80;6.55;;;17.10;99.90;;;;;;5054515;28;20114;-76
2023/04/21 10:03:52;;;;;;;9.82;6.35;;;17.50;99.90;;;;;;5052896;28;20117;-75
2023/04/21 10:06:18;;;;;;;9.15;6.68;;;17.90;99.90;;;;;;5053658;28;20078;-82
2023/04/21 10:08:45;;;;;;;9.50;6.50;;;18.20;99.90;;;;;;5053482;28;20040;-76
2023/04/21 10:11:12;;;;;;;9.27;6.20;;;18.30;99.90;;;;;;5053062;28;20052;-74
2023/04/21 10:13:38;;;;;;;9.57;6.72;;;18.20;99.90;;;;;;5052372;28;20040;-74
2023/04/21 10:16:08;;;;;;;9.30;5.95;;;18.00;99.90;;;;;;5052420;28;20053;-79
2023/04/21 10:18:36;;;;;;;8.23;5.82;;;18.00;99.90;;;;;;5053344;28;20136;-74
2023/04/21 10:21:05;;;;;;;12.60;6.45;;;18.20;99.90;;;;;;5053257;28;20051;-77
2023/04/21 10:23:42;;;;;;;8.35;6.32;;;18.40;99.90;;;;;;5054398;28;20049;-77
2023/04/21 10:26:31;;;;;;;8.98;6.50;;;18.70;99.90;;;;;;5054919;28;20080;-79
2023/04/21 10:28:59;;;;;;;9.82;5.95;;;18.80;99.90;;;;;;5054163;28;20351;-79
2023/04/21 10:31:33;;;;;;;8.80;6.55;;;18.90;99.90;;;;;;5053558;28;20075;-78
2023/04/21 10:34:07;;;;;;;9.35;6.32;;;19.10;99.90;;;;;;5054671;28;20044;-77
2023/04/21 10:36:34;;;;;;;7.93;6.03;;;19.30;99.90;;;;;;5053210;28;20124;-80
2023/04/21 10:39:04;;;;;;;8.25;5.53;;;19.30;99.90;;;;;;5054077;28;20175;-76
2023/04/21 10:41:32;;;;;;;9.35;5.97;;;19.50;99.90;;;;;;5054648;28;20056;-77
2023/04/21 10:44:11;;;;;;;10.07;5.70;;;19.70;99.90;;;;;;5052943;28;20381;-79
2023/04/21 10:46:45;;;;;;;11.05;5.55;;;20.00;99.90;;;;;;5053524;28;20054;-78
2023/04/21 10:49:20;;;;;;;10.13;5.57;;;20.20;99.90;;;;;;5053646;28;20055;-77
2023/04/21 10:52:07;;;;;;;7.93;5.30;;;20.40;99.90;;;;;;5053137;28;20351;-77
2023/04/21 10:55:03;;;;;;;8.52;5.47;;;20.40;99.90;;;;;;5053978;28;20095;-76
2023/04/21 10:57:32;;;;;;;8.77;5.90;;;20.20;99.90;;;;;;5051928;28;20464;-75
2023/04/21 10:59:58;;;;;;;7.53;5.20;;;19.90;99.90;;;;;;5035544;28;20059;-75
2023/04/21 11:02:24;;;;;;;8.60;5.20;;;20.10;99.90;;;;;;5052835;28;20045;-76
2023/04/21 11:04:51;;;;;;;7.97;5.13;;;20.20;99.90;;;;;;5052808;28;20470;-75
2023/04/21 11:07:20;;;;;;;7.18;5.03;;;20.30;99.90;;;;;;5052540;28;20490;-76
2023/04/21 11:09:55;;;;;;;8.52;4.97;;;20.50;99.90;;;;;;5052942;28;20115;-76
2023/04/21 11:12:20;;;;;;;8.67;4.90;;;20.70;99.90;;;;;;5051879;28;20049;-81
2023/04/21 11:14:49;;;;;;;10.40;4.93;;;21.00;99.90;;;;;;5053252;28;20290;-74
2023/04/21 11:17:16;;;;;;;6.47;4.60;;;21.30;99.90;;;;;;5051964;28;20128;-78
2023/04/21 11:19:50;;;;;;;7.20;4.40;;;21.50;99.90;;;;;;5051902;28;20059;-75
2023/04/21 11:22:17;;;;;;;6.30;4.55;;;21.60;99.90;;;;;;5052918;28;20061;-77
2023/04/21 11:24:47;;;;;;;7.03;4.30;;;21.50;99.90;;;;;;5053037;28;20053;-76
2023/04/21 11:27:14;;;;;;;8.10;4.55;;;21.40;99.90;;;;;;5051810;28;20497;-74
2023/04/21 11:29:40;;;;;;;6.03;4.10;;;21.40;99.90;;;;;;5035341;28;20060;-74
2023/04/21 11:32:07;;;;;;;7.88;3.78;;;21.40;99.90;;;;;;5052745;28;20055;-74
2023/04/21 11:34:35;;;;;;;7.32;4.10;;;21.40;99.90;;;;;;5051598;28;20053;-76
2023/04/21 11:37:01;;;;;;;7.80;4.00;;;21.30;99.90;;;;;;5052814;28;20083;-77
2023/04/21 11:39:26;;;;;;;8.73;4.05;;;21.10;99.90;;;;;;5052044;28;20102;-76
2023/04/21 11:41:52;;;;;;;6.63;4.00;;;20.80;99.90;;;;;;5052268;28;20071;-74
2023/04/21 11:44:34;;;;;;;7.82;3.90;;;20.80;99.90;;;;;;5052824;28;20359;-76
2023/04/21 11:47:10;;;;;;;6.82;3.45;;;20.80;99.90;;;;;;5052612;28;20405;-75
2023/04/21 11:49:47;;;;;;;4.63;3.05;;;21.00;99.90;;;;;;5051528;28;20056;-75
2023/04/21 11:52:31;;;;;;;5.90;3.22;;;21.50;99.90;;;;;;5052612;28;20084;-74
2023/04/21 11:55:04;;;;;;;7.68;3.50;;;21.90;99.90;;;;;;5052584;28;20057;-75
2023/04/21 11:57:31;;;;;;;7.15;3.58;;;22.00;99.90;;;;;;5052540;28;20381;-73
2023/04/21 12:00:03;;;;;;;5.90;2.92;;;22.00;99.90;;;;;;5052485;28;20059;-75
2023/04/21 12:02:30;;;;;;;7.25;3.00;;;22.20;99.90;;;;;;5052244;28;20087;-77
2023/04/21 12:05:07;;;;;;;6.95;3.83;;;22.50;99.90;;;;;;5053296;28;20362;-77
2023/04/21 12:07:37;;;;;;;5.45;3.30;;;22.50;99.90;;;;;;5056423;28;20082;-81
2023/04/21 12:10:16;;;;;;;7.32;3.65;;;22.20;99.90;;;;;;5056049;28;20478;-79
2023/04/21 12:12:42;;;;;;;4.13;3.15;;;22.10;99.90;;;;;;5055585;28;20063;-77
2023/04/21 12:15:10;;;;;;;7.00;3.13;;;21.80;99.90;;;;;;5056239;28;20052;-83
2023/04/21 12:17:54;;;;;;;6.72;3.25;;;21.30;99.90;;;;;;5055989;28;20052;-79
2023/04/21 12:20:23;;;;;;;6.50;3.20;;;21.30;99.90;;;;;;5057149;28;20049;-81
2023/04/21 12:22:49;;;;;;;6.28;3.53;;;21.30;99.90;;;;;;5055978;28;20061;-79
2023/04/21 12:25:15;;;;;;;5.55;3.00;;;21.10;99.90;;;;;;5056001;28;20473;-81
2023/04/21 12:27:52;;;;;;;5.75;3.35;;;21.00;99.90;;;;;;5038869;28;20049;-79
2023/04/21 12:30:19;;;;;;;5.95;2.58;;;21.50;99.90;;;;;;5055660;28;20370;-81
2023/04/21 12:32:46;;;;;;;5.32;3.05;;;21.60;99.90;;;;;;5056780;28;20045;-82
2023/04/21 12:35:12;;;;;;;5.68;3.05;;;21.20;99.90;;;;;;5056625;28;20068;-78
2023/04/21 12:37:37;;;;;;;5.25;3.13;;;21.00;99.90;;;;;;5056523;28;20049;-80
2023/04/21 12:40:04;;;;;;;7.35;3.30;;;20.60;99.90;;;;;;5038925;28;20053;-81
2023/04/21 12:42:30;;;;;;;8.65;3.22;;;20.30;99.90;;;;;;5056292;28;20099;-79
2023/04/21 12:44:56;;;;;;;5.13;3.22;;;20.50;99.90;;;;;;5055714;28;20044;-81
2023/04/21 12:47:22;;;;;;;6.05;3.28;;;20.70;99.90;;;;;;5055594;28;20041;-77